Aérodrome :
LOGIN :

S'inscrire | Disclaimer

   EN    FR    IT 

 










Légende :    VFR   VFR Marginal   IFR   IFR Intensif   IFR Très Intensif
Visi : 
Plafond : 
>= 8 km
>= 3000ft
5 à 8 km
1000 à 3000 ft
1500m à 5 km
500 à 1000 ft
800 à 1500m
200 à 500 ft
< 800m
< 200 ft
Symboles :   Orages  Brouillard  Fortes neiges  Fortes précipitations  Vent > 20 kt
SIGMETs :   Divers  Orages  Givrage  Turbulence  Onde Orograph.  Cendres Volcan.






- Altitude de l'aérodrome : 20 ft
- Code IATA : TIV


LYTV - Tivat - Montenegro

DERNIER METAR :
  • 240900Z 21006KT 110V280 9999 SCT040 17/07 Q1009 TEMPO 21016KT

METARs EXPIRÉS :
  • 240830Z 21006KT 140V270 9999 SCT036 15/07 Q1009 NOSIG
  • 240800Z 17004KT 12V250 9999 SCT050 15/08 Q1009 NOSIG
  • 240730Z 15009KT 110V190 9999 BKN050 15/08 Q1008 NOSIG
  • 240700Z 15006KT 110V200 9999 SCT043 16/08 Q1008 NOSIG
  • 240630Z 14005KT 100V190 9999 SCT053 15/10 Q1008 NOSIG
  • 240600Z 13004KT 9999 SCT053 13/10 Q1008 NOSIG
  • 240530Z 15007KT 9999 SCT053 13/09 Q1008 NOSIG
  • 240500Z 16006KT 9999 FEW050 12/09 Q1007 NOSIG

TAF TAF LYTV
Valide du 24 à 06h jusqu'au 25 à 06h UTC


240500Z 2406/2506 15005KT 9999 SCT033 TX17/2413Z TN08/2504Z
PROB30
TEMPO 2409/2415 25012KT SHRA FEW030TCU SCT033
PROB40
TEMPO 2421/2424 4000 RA



MET'MAP, la Météo Aéronautique d'un coup d'oeil ! - Copyright ORBIFLY Décembre 2007 - Disclaimer

ORBIFLY MET'MAP TEAM :

Programmation & Développement : Alexandra Zaïnal
Sur une idée originale de : Baudouin d'Aumeries
Soutien technique & logistique : Manuel Goepfert
Assistance : Marc-Olivier Méhu




SOURCES & CREDITS :

   NOAA